ETNT

Details ICAO ETNT
Name WITTMUNDHAFEN
Region Germany - Military
Timezone Europe/Berlin (UTC+1.0)
Plans Departing 10
Arriving 4
Stats Elevation 26 ft / 8 m (AMSL)
Location 53.547917° 7.667333°
Runways 1
Magnetic Variation 2.037° E
Sunrise 2017-12-16 07:41:43 UTC / 2017-12-16 08:41:43 Local
Sunset 2017-12-16 15:10:57 UTC / 2017-12-16 16:10:57 Local
Advertisement - Login to hide

Runways

ID Width Length Bearing (true) Bearing (mag) Surface Threshold Offset Overrun Length
08 98 ft / 30 m 7,976 ft / 2,431 m 78.10° 76.06° Asphalt 0 ft / 0 m 951 ft / 290 m
26 98 ft / 30 m 7,976 ft / 2,431 m 258.13° 256.09° Asphalt 0 ft / 0 m 951 ft / 290 m

Map

Weather


0- 5 10 15 20 25 30 35+ Temperature / ° C

Clouds and Precipitation
Forecast for 2017-12-16 06:00 UTC. Updated a minute ago

Ground ~20,000 ft ~40,000 ft Winds

METAR

ETNT 160420Z 20003KT 4000 BR FEW004 SCT019 01/01 Q1003 GRN

TAF

Not found

Frequencies

Tower 118.72 MHz WITTMUND TWR
Approach 123.30 MHz WITTMUND RADAR
Tower 122.10 MHz WITTMUND TWR
Approach 123.60 MHz WITTMUND RADAR
Warning: Do not use this data for real-world aviation or navigation. No guarantee of current accuracy is given.